Ladbroke Grove, United Kingdom
Current Conditions -  °F | °C
As of 3:50 AM on Friday 31 Oct 2014 (Local Time) from EGWU Reporting Station
Clear Clear  
Wind Chill: 54°   Ceiling: Unl
Heat Index: 54°   Visibility: 2.3mi
Dew Point: 54°   Wind: 1mph
Humidity: 100%   Direction: 50°NE
Pressure: 30.03"   Gusts: NA
Location:  51.53°N, 0.22°W
Report Text: EGWU 310350Z AUTO 05001KT 3800 // NCD 12/12 Q1017
Loading
Personal Weather Stations






























Interactive Weather Map
Tropical Storm Tracking
New forecast layout! Learn more

10-Day Weather Forecast

Advertisements
Track Severe Weather on mobile